createdAt,value
2022-10-19T00:01:23.783Z,12.50
2022-10-19T00:03:55.340Z,10.90
2022-10-19T00:06:30.797Z,15.70
2022-10-19T00:09:13.178Z,13.40
2022-10-19T00:11:47.197Z,11.60
2022-10-19T00:14:22.640Z,12.90
2022-10-19T00:16:54.702Z,12.70
2022-10-19T00:19:26.744Z,12.40
2022-10-19T00:21:55.567Z,10.70
2022-10-19T00:24:24.112Z,14.20
2022-10-19T00:26:52.559Z,12.70
2022-10-19T00:32:51.418Z,10.50
2022-10-19T00:35:19.966Z,9.50
2022-10-19T00:37:48.429Z,13.40
2022-10-19T00:40:16.986Z,14.10
2022-10-19T00:42:45.519Z,13.30
2022-10-19T00:45:17.672Z,12.90
2022-10-19T00:47:46.751Z,11.50
2022-10-19T00:50:15.914Z,12.10
2022-10-19T00:52:44.474Z,11.50
2022-10-19T00:55:13.367Z,13.90
2022-10-19T00:57:41.896Z,12.30
2022-10-19T01:00:10.779Z,12.00
2022-10-19T01:02:39.325Z,13.80
2022-10-19T01:05:08.604Z,13.00
2022-10-19T01:07:37.201Z,15.00
2022-10-19T01:10:06.773Z,12.00
2022-10-19T01:13:00.874Z,11.80
2022-10-19T01:15:45.407Z,12.90
2022-10-19T01:18:24.134Z,13.40
2022-10-19T01:21:26.326Z,12.20
2022-10-19T01:24:35.841Z,15.30
2022-10-19T01:27:51.556Z,14.90
2022-10-19T01:30:53.527Z,9.60
2022-10-19T01:33:47.970Z,12.80
2022-10-19T01:36:39.756Z,12.50
2022-10-19T01:39:23.735Z,22.00
2022-10-19T01:42:16.809Z,16.80
2022-10-19T01:44:59.597Z,15.50
2022-10-19T01:47:39.129Z,15.30
2022-10-19T01:50:17.923Z,17.20
2022-10-19T01:52:47.130Z,16.60
2022-10-19T01:55:16.678Z,28.70
2022-10-19T01:57:57.513Z,23.50
2022-10-19T02:00:26.669Z,22.50
2022-10-19T02:02:55.690Z,18.10
2022-10-19T02:05:30.613Z,15.70
2022-10-19T02:08:03.244Z,19.40
2022-10-19T02:10:34.216Z,14.90
2022-10-19T02:13:03.497Z,14.70
2022-10-19T02:15:35.078Z,18.80
2022-10-19T02:20:31.909Z,15.00
2022-10-19T02:23:00.400Z,15.50
2022-10-19T02:25:28.922Z,17.30
2022-10-19T02:27:57.526Z,15.70
2022-10-19T02:30:26.250Z,17.80
2022-10-19T02:32:55.075Z,12.80
2022-10-19T02:35:23.516Z,14.20
2022-10-19T02:37:52.128Z,12.50
2022-10-19T02:40:20.669Z,11.30
2022-10-19T02:42:58.512Z,15.80
2022-10-19T02:45:33.527Z,15.00
2022-10-19T02:51:37.257Z,14.00
2022-10-19T02:54:08.015Z,12.30
2022-10-19T02:56:37.819Z,14.50
2022-10-19T02:59:06.265Z,15.20
2022-10-19T03:01:35.159Z,15.40
2022-10-19T03:04:04.190Z,15.90
2022-10-19T03:06:32.682Z,17.20
2022-10-19T03:09:01.174Z,15.70
2022-10-19T03:11:30.136Z,17.30
2022-10-19T03:13:58.659Z,18.80
2022-10-19T03:16:27.158Z,21.10
2022-10-19T03:18:55.732Z,15.60
2022-10-19T03:21:24.412Z,20.70
2022-10-19T03:23:53.005Z,17.00
2022-10-19T03:26:21.540Z,19.70
2022-10-19T03:28:50.248Z,14.50
2022-10-19T03:31:19.313Z,17.40
2022-10-19T03:33:48.390Z,16.70
2022-10-19T03:36:21.930Z,17.30
2022-10-19T03:38:56.211Z,19.00
2022-10-19T03:41:28.909Z,23.80
2022-10-19T03:43:57.872Z,18.10
2022-10-19T03:46:28.028Z,24.60
2022-10-19T03:48:56.593Z,22.40
2022-10-19T03:51:27.957Z,17.90
2022-10-19T03:54:05.417Z,19.60
2022-10-19T03:56:35.587Z,19.70
2022-10-19T03:59:06.268Z,24.10
2022-10-19T04:01:45.098Z,19.30
2022-10-19T04:04:17.612Z,19.40
2022-10-19T04:06:49.039Z,18.90
2022-10-19T04:11:48.895Z,17.70
2022-10-19T04:14:31.636Z,19.40
2022-10-19T04:17:02.462Z,21.00
2022-10-19T04:19:32.015Z,16.20
2022-10-19T04:22:00.794Z,22.40
2022-10-19T04:24:29.295Z,19.60
2022-10-19T04:26:58.161Z,18.80
2022-10-19T04:29:29.771Z,29.40
2022-10-19T04:31:59.767Z,25.00
2022-10-19T04:34:28.505Z,26.50
2022-10-19T04:36:59.687Z,23.20
2022-10-19T04:39:28.366Z,18.90
2022-10-19T04:41:57.045Z,22.70
2022-10-19T04:44:25.565Z,35.20
2022-10-19T04:46:54.042Z,29.80
2022-10-19T04:49:22.683Z,35.80
2022-10-19T04:51:51.141Z,19.80
2022-10-19T04:54:19.756Z,34.70
2022-10-19T04:56:48.316Z,26.50
2022-10-19T04:59:16.790Z,28.20
2022-10-19T05:01:47.267Z,23.70
2022-10-19T05:04:16.018Z,21.30
2022-10-19T05:06:44.746Z,29.30
2022-10-19T05:09:13.401Z,20.50
2022-10-19T05:11:41.856Z,24.40
2022-10-19T05:14:10.392Z,36.50
2022-10-19T05:16:38.823Z,39.60
2022-10-19T05:19:07.305Z,24.70
2022-10-19T05:21:35.710Z,29.90
2022-10-19T05:24:04.619Z,26.80
2022-10-19T05:26:32.994Z,22.10
2022-10-19T05:29:04.897Z,25.60
2022-10-19T05:31:34.879Z,28.60
2022-10-19T05:34:04.347Z,24.80
2022-10-19T05:36:37.978Z,23.90
2022-10-19T05:39:12.715Z,25.10
2022-10-19T05:41:43.779Z,29.70
2022-10-19T05:44:20.008Z,25.00
2022-10-19T05:46:50.130Z,29.90
2022-10-19T05:49:21.140Z,30.30
2022-10-19T05:51:50.430Z,33.60
2022-10-19T05:54:21.758Z,40.30
2022-10-19T05:56:52.484Z,35.10
2022-10-19T05:59:21.684Z,46.30
2022-10-19T06:01:50.438Z,26.00
2022-10-19T06:04:18.923Z,33.00
2022-10-19T06:06:47.476Z,24.90
2022-10-19T06:09:17.128Z,30.00
2022-10-19T06:11:45.717Z,27.40
2022-10-19T06:14:16.199Z,27.20
2022-10-19T06:16:46.285Z,24.40
2022-10-19T06:19:15.232Z,19.10
2022-10-19T06:21:45.882Z,22.90
2022-10-19T06:24:14.982Z,21.70
2022-10-19T06:26:43.491Z,27.20
2022-10-19T06:29:12.320Z,32.00
2022-10-19T06:31:40.878Z,24.10
2022-10-19T06:34:09.320Z,26.30
2022-10-19T06:36:38.354Z,19.10
2022-10-19T06:39:06.893Z,21.20
2022-10-19T06:41:35.538Z,27.50
2022-10-19T06:44:19.783Z,17.40
2022-10-19T06:46:48.640Z,16.60
2022-10-19T06:49:17.125Z,23.20
2022-10-19T06:51:45.570Z,19.70
2022-10-19T06:54:14.231Z,19.40
2022-10-19T06:56:42.801Z,17.20
2022-10-19T06:59:13.500Z,17.70
2022-10-19T07:01:43.950Z,18.80
2022-10-19T07:04:12.685Z,25.70
2022-10-19T07:06:41.198Z,22.60
2022-10-19T07:09:09.693Z,21.60
2022-10-19T07:11:42.410Z,18.70
2022-10-19T07:14:14.683Z,18.90
2022-10-19T07:16:43.168Z,20.80
2022-10-19T07:19:13.630Z,16.20
2022-10-19T07:21:44.204Z,17.30
2022-10-19T07:24:32.640Z,18.70
2022-10-19T07:27:01.422Z,17.80
2022-10-19T07:29:29.927Z,19.10
2022-10-19T07:31:59.047Z,19.40
2022-10-19T07:34:29.034Z,18.20
2022-10-19T07:36:57.897Z,17.50
2022-10-19T07:39:27.618Z,19.40
2022-10-19T07:41:56.094Z,21.90
2022-10-19T07:44:24.655Z,24.60
2022-10-19T07:46:53.127Z,25.80
2022-10-19T07:49:22.037Z,21.30
2022-10-19T07:51:54.276Z,33.60
2022-10-19T07:54:24.719Z,32.10
2022-10-19T07:56:53.169Z,19.60
2022-10-19T07:59:21.737Z,22.10
2022-10-19T08:01:50.688Z,24.30
2022-10-19T08:07:07.868Z,26.10
2022-10-19T08:09:53.634Z,22.40
2022-10-19T08:12:22.761Z,22.10
2022-10-19T08:14:51.339Z,28.70
2022-10-19T08:17:20.375Z,19.90
2022-10-19T08:19:49.091Z,24.70
2022-10-19T08:22:17.775Z,22.10
2022-10-19T08:24:46.441Z,22.40
2022-10-19T08:27:17.131Z,28.70
2022-10-19T08:29:45.825Z,24.20
2022-10-19T08:32:14.350Z,20.90
2022-10-19T08:34:42.731Z,26.70
2022-10-19T08:37:20.227Z,24.60
2022-10-19T08:39:54.722Z,25.90
2022-10-19T08:42:48.011Z,20.10
2022-10-19T08:48:28.572Z,21.20
2022-10-19T08:50:58.778Z,29.50
2022-10-19T08:53:45.846Z,24.30
2022-10-19T08:56:45.981Z,22.00
2022-10-19T08:59:21.067Z,25.00
2022-10-19T09:01:56.106Z,24.10
2022-10-19T09:04:31.556Z,19.40
2022-10-19T09:07:19.408Z,19.60
2022-10-19T09:09:58.931Z,23.90
2022-10-19T09:12:46.010Z,18.20
2022-10-19T09:15:33.288Z,17.10
2022-10-19T09:18:03.041Z,16.20
2022-10-19T09:20:39.358Z,19.10
2022-10-19T09:23:37.493Z,23.80
2022-10-19T09:26:19.102Z,16.00
2022-10-19T09:29:13.443Z,17.70
2022-10-19T09:31:45.790Z,18.30
2022-10-19T09:37:47.667Z,15.80
2022-10-19T09:40:31.037Z,16.50
2022-10-19T09:43:03.303Z,15.10
2022-10-19T09:46:00.515Z,12.20
2022-10-19T09:48:50.569Z,20.90
2022-10-19T09:51:20.111Z,12.70
2022-10-19T09:53:54.068Z,8.90
2022-10-19T09:56:27.795Z,11.10
2022-10-19T09:58:58.982Z,11.40
2022-10-19T10:01:43.022Z,10.30
2022-10-19T10:04:18.502Z,6.00
2022-10-19T10:06:48.825Z,12.00
2022-10-19T10:09:19.346Z,6.20
2022-10-19T10:11:50.815Z,8.40
2022-10-19T10:14:24.740Z,9.80
2022-10-19T10:17:22.091Z,8.60
2022-10-19T10:19:51.439Z,11.60
2022-10-19T10:22:29.888Z,10.70
2022-10-19T10:24:58.801Z,7.70
2022-10-19T10:27:37.371Z,8.70
2022-10-19T10:30:13.048Z,6.70
2022-10-19T10:32:49.523Z,8.50
2022-10-19T10:35:50.077Z,9.70
2022-10-19T10:38:22.571Z,8.80
2022-10-19T10:40:57.471Z,6.40
2022-10-19T10:43:34.085Z,6.10
2022-10-19T10:46:13.436Z,7.50
2022-10-19T10:48:45.430Z,7.50
2022-10-19T10:51:28.380Z,5.10
2022-10-19T10:54:17.597Z,6.60
2022-10-19T10:57:18.845Z,7.90
2022-10-19T11:00:11.329Z,9.50
2022-10-19T11:03:04.866Z,9.10
2022-10-19T11:05:41.541Z,7.30
2022-10-19T11:08:19.262Z,5.40
2022-10-19T11:11:26.251Z,5.60
2022-10-19T11:14:37.638Z,4.60
2022-10-19T11:19:45.325Z,4.90
2022-10-19T11:26:39.881Z,8.20
2022-10-19T11:29:50.944Z,5.50
2022-10-19T11:32:47.327Z,7.70
2022-10-19T11:35:21.804Z,6.20
2022-10-19T11:38:17.458Z,6.50
2022-10-19T11:44:04.840Z,8.60
2022-10-19T11:47:22.698Z,5.50
2022-10-19T11:50:32.013Z,6.10
2022-10-19T11:53:30.520Z,5.90
2022-10-19T11:56:34.807Z,5.80
2022-10-19T11:59:43.165Z,6.10
2022-10-19T12:02:35.498Z,8.20
2022-10-19T12:05:15.648Z,5.50
2022-10-19T12:08:20.711Z,6.70
2022-10-19T12:11:13.324Z,5.80
2022-10-19T12:13:52.824Z,4.80
2022-10-19T12:16:22.068Z,6.30
2022-10-19T12:19:00.933Z,5.40
2022-10-19T12:21:43.333Z,3.90
2022-10-19T12:24:22.848Z,6.40
2022-10-19T12:26:52.426Z,6.60
2022-10-19T12:29:34.713Z,12.80
2022-10-19T12:32:03.970Z,8.30
2022-10-19T12:34:45.288Z,5.50
2022-10-19T12:37:15.945Z,6.40
2022-10-19T12:40:38.010Z,7.00
2022-10-19T12:43:36.832Z,11.40
2022-10-19T12:46:41.862Z,12.70
2022-10-19T12:49:29.065Z,8.80
2022-10-19T12:52:01.694Z,6.80
2022-10-19T12:54:35.417Z,8.20
2022-10-19T12:57:24.353Z,8.40
2022-10-19T13:00:24.695Z,5.60
2022-10-19T13:03:25.083Z,4.60
2022-10-19T13:06:03.449Z,7.90
2022-10-19T13:08:54.845Z,6.70
2022-10-19T13:14:20.429Z,7.90
2022-10-19T13:17:03.473Z,6.80
2022-10-19T13:19:32.240Z,6.70
2022-10-19T13:22:25.170Z,9.50
2022-10-19T13:25:24.056Z,9.60
2022-10-19T13:27:57.716Z,8.50
2022-10-19T13:30:38.477Z,8.30
2022-10-19T13:33:25.741Z,12.30
2022-10-19T13:36:00.423Z,10.00
2022-10-19T13:38:41.430Z,8.70
2022-10-19T13:41:27.662Z,9.20
2022-10-19T13:44:25.467Z,15.20
2022-10-19T13:47:28.581Z,5.60
2022-10-19T13:50:47.258Z,8.00
2022-10-19T13:53:28.908Z,10.20
2022-10-19T13:56:22.666Z,10.70
2022-10-19T13:59:13.094Z,8.50
2022-10-19T14:01:53.713Z,8.40
2022-10-19T14:04:51.899Z,6.90
2022-10-19T14:07:28.847Z,11.70
2022-10-19T14:10:17.333Z,7.30
2022-10-19T14:12:46.964Z,13.50
2022-10-19T14:15:18.582Z,10.50
2022-10-19T14:17:47.242Z,9.40
2022-10-19T14:20:36.743Z,10.60
2022-10-19T14:23:28.486Z,14.10
2022-10-19T14:26:19.793Z,11.60
2022-10-19T14:28:54.425Z,9.90
2022-10-19T14:31:26.463Z,10.30
2022-10-19T14:34:00.683Z,28.00
2022-10-19T14:36:36.722Z,15.30
2022-10-19T14:39:06.449Z,12.70
2022-10-19T14:41:37.621Z,18.80
2022-10-19T14:44:45.451Z,15.00
2022-10-19T14:47:27.392Z,13.40
2022-10-19T14:49:57.173Z,12.70
2022-10-19T14:52:33.258Z,9.40
2022-10-19T14:55:07.790Z,10.10
2022-10-19T14:57:39.467Z,15.10
2022-10-19T15:00:17.735Z,13.40
2022-10-19T15:02:54.544Z,10.10
2022-10-19T15:05:30.167Z,9.20
2022-10-19T15:11:40.315Z,14.80
2022-10-19T15:14:15.322Z,18.20
2022-10-19T15:16:57.595Z,19.70
2022-10-19T15:19:40.305Z,22.00
2022-10-19T15:22:14.749Z,14.30
2022-10-19T15:25:19.637Z,14.10
2022-10-19T15:27:50.917Z,11.80
2022-10-19T15:33:08.710Z,14.90
2022-10-19T15:39:24.934Z,15.20
2022-10-19T15:41:54.111Z,17.00
2022-10-19T15:44:40.947Z,14.80
2022-10-19T15:47:15.597Z,13.60
2022-10-19T15:49:44.627Z,13.50
2022-10-19T15:52:21.678Z,12.10
2022-10-19T15:54:52.839Z,15.40
2022-10-19T15:57:31.062Z,17.10
2022-10-19T16:00:06.491Z,13.20
2022-10-19T16:02:35.467Z,21.60
2022-10-19T16:05:04.489Z,14.60
2022-10-19T16:07:36.514Z,14.30
2022-10-19T16:10:06.235Z,18.50
2022-10-19T16:12:35.037Z,15.20
2022-10-19T16:15:04.080Z,16.10
2022-10-19T16:17:33.511Z,15.30
2022-10-19T16:20:06.692Z,16.70
2022-10-19T16:22:35.197Z,7.70
2022-10-19T16:25:04.868Z,8.50
2022-10-19T16:27:33.851Z,7.70
2022-10-19T16:30:02.760Z,7.20
2022-10-19T16:32:31.253Z,6.70
2022-10-19T16:35:00.127Z,6.90
2022-10-19T16:37:28.797Z,5.60
2022-10-19T16:39:57.447Z,5.20
2022-10-19T16:42:29.731Z,6.60
2022-10-19T16:44:59.792Z,7.60
2022-10-19T16:47:29.141Z,5.30
2022-10-19T16:50:00.448Z,7.70
2022-10-19T16:52:33.194Z,5.50
2022-10-19T16:55:02.330Z,6.20
2022-10-19T16:57:30.929Z,7.40
2022-10-19T16:59:59.533Z,6.80
2022-10-19T17:02:28.091Z,7.20
2022-10-19T17:08:21.639Z,7.00
2022-10-19T17:10:52.484Z,8.40
2022-10-19T17:13:21.163Z,7.80
2022-10-19T17:15:49.687Z,5.60
2022-10-19T17:20:51.524Z,8.00
2022-10-19T17:23:20.000Z,7.30
2022-10-19T17:25:49.465Z,6.70
2022-10-19T17:28:17.880Z,6.60
2022-10-19T17:30:47.739Z,7.50
2022-10-19T17:33:16.171Z,8.90
2022-10-19T17:35:45.950Z,9.10
2022-10-19T17:38:14.589Z,7.20
2022-10-19T17:40:42.922Z,10.10
2022-10-19T17:43:11.460Z,6.80
2022-10-19T17:45:40.316Z,8.50
2022-10-19T17:48:08.885Z,9.60
2022-10-19T17:50:37.432Z,8.40
2022-10-19T17:53:05.905Z,9.70
2022-10-19T17:55:37.538Z,8.20
2022-10-19T17:58:06.093Z,7.50
2022-10-19T18:00:34.608Z,7.40
2022-10-19T18:03:03.472Z,7.00
2022-10-19T18:05:32.316Z,10.10
2022-10-19T18:08:01.028Z,7.00
2022-10-19T18:10:29.487Z,11.80
2022-10-19T18:12:58.450Z,8.00
2022-10-19T18:15:27.048Z,10.50
2022-10-19T18:17:55.830Z,8.70
2022-10-19T18:20:24.321Z,6.90
2022-10-19T18:22:52.966Z,6.10
2022-10-19T18:25:42.313Z,6.00
2022-10-19T18:28:11.321Z,9.20
2022-10-19T18:30:40.004Z,6.40
2022-10-19T18:33:09.157Z,7.30
2022-10-19T18:35:39.375Z,9.20
2022-10-19T18:38:08.005Z,5.30
2022-10-19T18:40:39.750Z,8.80
2022-10-19T18:43:08.371Z,4.60
2022-10-19T18:45:36.843Z,8.90
2022-10-19T18:48:06.376Z,8.90
2022-10-19T18:50:34.844Z,7.60
2022-10-19T18:53:03.644Z,8.40
2022-10-19T18:55:32.202Z,8.60
2022-10-19T18:58:00.716Z,9.10
2022-10-19T19:00:29.796Z,7.90
2022-10-19T19:02:58.746Z,4.30
2022-10-19T19:05:28.302Z,6.00
2022-10-19T19:07:57.289Z,8.40
2022-10-19T19:10:25.825Z,8.20
2022-10-19T19:12:54.280Z,6.40
2022-10-19T19:15:23.262Z,7.60
2022-10-19T19:17:55.178Z,5.60
2022-10-19T19:20:23.788Z,4.90
2022-10-19T19:22:53.143Z,4.50
2022-10-19T19:25:21.898Z,6.20
2022-10-19T19:27:50.637Z,5.10
2022-10-19T19:30:19.361Z,6.90
2022-10-19T19:32:48.000Z,6.40
2022-10-19T19:35:16.458Z,7.30
2022-10-19T19:37:44.863Z,7.30
2022-10-19T19:40:13.868Z,7.50
2022-10-19T19:42:43.400Z,7.00
2022-10-19T19:45:12.249Z,6.40
2022-10-19T19:47:40.881Z,6.10
2022-10-19T19:50:09.930Z,6.40
2022-10-19T19:55:57.850Z,6.00
2022-10-19T19:58:27.402Z,5.50
2022-10-19T20:00:56.629Z,7.60
2022-10-19T20:03:25.582Z,6.80
2022-10-19T20:05:53.997Z,5.90
2022-10-19T20:08:22.480Z,4.70
2022-10-19T20:10:51.260Z,5.60
2022-10-19T20:13:19.875Z,5.60
2022-10-19T20:15:48.452Z,7.80
2022-10-19T20:18:17.413Z,5.60
2022-10-19T20:20:46.132Z,6.60
2022-10-19T20:23:15.095Z,5.80
2022-10-19T20:25:44.120Z,7.00
2022-10-19T20:28:13.085Z,5.50
2022-10-19T20:30:44.679Z,6.60
2022-10-19T20:33:13.461Z,8.20
2022-10-19T20:35:42.281Z,4.90
2022-10-19T20:38:10.920Z,6.20
2022-10-19T20:40:41.048Z,7.80
2022-10-19T20:43:09.662Z,6.10
2022-10-19T20:45:38.140Z,8.60
2022-10-19T20:48:06.689Z,6.50
2022-10-19T20:50:35.292Z,8.90
2022-10-19T20:53:04.649Z,8.20
2022-10-19T20:55:33.893Z,5.00
2022-10-19T20:58:02.442Z,5.30
2022-10-19T21:00:31.168Z,5.30
2022-10-19T21:03:00.181Z,4.20
2022-10-19T21:05:30.033Z,7.00
2022-10-19T21:07:58.994Z,7.30
2022-10-19T21:10:29.205Z,4.90
2022-10-19T21:12:58.069Z,4.40
2022-10-19T21:15:26.726Z,5.00
2022-10-19T21:17:55.207Z,4.90
2022-10-19T21:20:23.966Z,4.80
2022-10-19T21:22:52.608Z,6.40
2022-10-19T21:25:21.320Z,7.40
2022-10-19T21:27:52.893Z,5.30
2022-10-19T21:30:22.527Z,4.80
2022-10-19T21:32:51.397Z,5.10
2022-10-19T21:35:20.033Z,5.50
2022-10-19T21:37:49.079Z,6.50
2022-10-19T21:40:17.501Z,6.60
2022-10-19T21:42:45.910Z,6.10
2022-10-19T21:45:29.844Z,6.90
2022-10-19T21:47:59.042Z,4.50
2022-10-19T21:50:27.405Z,7.10
2022-10-19T21:52:56.015Z,6.60
2022-10-19T21:55:25.213Z,4.50
2022-10-19T21:57:53.676Z,5.60
2022-10-19T22:00:22.270Z,6.40
2022-10-19T22:02:50.825Z,7.30
2022-10-19T22:05:20.051Z,6.10
2022-10-19T22:07:48.717Z,5.80
2022-10-19T22:10:17.340Z,5.00
2022-10-19T22:12:45.832Z,5.20
2022-10-19T22:15:15.000Z,6.30
2022-10-19T22:17:43.575Z,7.00
2022-10-19T22:20:12.294Z,4.50
2022-10-19T22:22:40.611Z,5.80
2022-10-19T22:25:09.253Z,4.40
2022-10-19T22:27:37.702Z,5.00
2022-10-19T22:30:07.504Z,4.00
2022-10-19T22:32:36.122Z,4.60
2022-10-19T22:35:06.265Z,4.30
2022-10-19T22:37:35.100Z,5.20
2022-10-19T22:40:04.157Z,5.40
2022-10-19T22:42:32.889Z,5.60
2022-10-19T22:45:01.689Z,3.80
2022-10-19T22:47:30.303Z,4.70
2022-10-19T22:49:58.683Z,2.80
2022-10-19T22:52:27.015Z,4.80
2022-10-19T22:54:55.944Z,6.80
2022-10-19T22:57:24.968Z,4.80
2022-10-19T22:59:53.782Z,3.50
2022-10-19T23:02:22.492Z,3.20
2022-10-19T23:04:50.879Z,4.90
2022-10-19T23:07:19.292Z,5.50
2022-10-19T23:09:47.639Z,3.60
2022-10-19T23:12:16.908Z,3.60
2022-10-19T23:14:45.201Z,4.40
2022-10-19T23:17:13.604Z,3.20
2022-10-19T23:19:41.998Z,2.00
2022-10-19T23:22:10.393Z,1.60
2022-10-19T23:24:38.768Z,3.90
2022-10-19T23:27:07.194Z,4.80
2022-10-19T23:29:35.586Z,2.20
2022-10-19T23:32:04.032Z,1.90
2022-10-19T23:34:32.436Z,3.80
2022-10-19T23:37:00.974Z,2.20
2022-10-19T23:39:29.280Z,2.60
2022-10-19T23:41:57.692Z,2.90
2022-10-19T23:44:26.094Z,3.90
2022-10-19T23:46:54.343Z,3.20
2022-10-19T23:49:22.813Z,2.40
2022-10-19T23:51:51.180Z,2.50
2022-10-19T23:54:19.470Z,2.20
2022-10-19T23:56:47.877Z,2.40
2022-10-19T23:59:16.178Z,2.40
